sensor_id;sensor_type;location;lat;lon;timestamp;temperature;humidity
3300;DHT22;1662;49.310;8.134;2023-04-15T00:01:18;8.80;99.90
3300;DHT22;1662;49.310;8.134;2023-04-15T00:03:45;8.80;99.90
3300;DHT22;1662;49.310;8.134;2023-04-15T00:06:11;8.70;99.90
3300;DHT22;1662;49.310;8.134;2023-04-15T00:08:38;8.70;99.90
3300;DHT22;1662;49.310;8.134;2023-04-15T00:11:03;8.60;99.90
3300;DHT22;1662;49.310;8.134;2023-04-15T00:13:30;8.60;99.90
3300;DHT22;1662;49.310;8.134;2023-04-15T00:15:57;8.60;99.90
3300;DHT22;1662;49.310;8.134;2023-04-15T00:18:23;8.60;99.90
3300;DHT22;1662;49.310;8.134;2023-04-15T00:20:49;8.60;99.90
3300;DHT22;1662;49.310;8.134;2023-04-15T00:23:14;8.60;99.90
3300;DHT22;1662;49.310;8.134;2023-04-15T00:25:40;8.50;99.90
3300;DHT22;1662;49.310;8.134;2023-04-15T00:28:06;8.50;99.90
3300;DHT22;1662;49.310;8.134;2023-04-15T00:30:31;8.50;99.90
3300;DHT22;1662;49.310;8.134;2023-04-15T00:32:57;8.50;99.90
3300;DHT22;1662;49.310;8.134;2023-04-15T00:35:23;8.50;99.90
3300;DHT22;1662;49.310;8.134;2023-04-15T00:37:49;8.50;99.90
3300;DHT22;1662;49.310;8.134;2023-04-15T00:40:16;8.50;99.90
3300;DHT22;1662;49.310;8.134;2023-04-15T00:42:43;8.50;99.90
3300;DHT22;1662;49.310;8.134;2023-04-15T00:45:09;8.50;99.90
3300;DHT22;1662;49.310;8.134;2023-04-15T00:47:36;8.50;99.90
3300;DHT22;1662;49.310;8.134;2023-04-15T00:50:03;8.50;99.90
3300;DHT22;1662;49.310;8.134;2023-04-15T00:52:29;8.50;99.90
3300;DHT22;1662;49.310;8.134;2023-04-15T00:54:55;8.40;99.90
3300;DHT22;1662;49.310;8.134;2023-04-15T00:57:21;8.40;99.90
3300;DHT22;1662;49.310;8.134;2023-04-15T00:59:47;8.40;99.90
3300;DHT22;1662;49.310;8.134;2023-04-15T01:02:13;8.40;99.90
3300;DHT22;1662;49.310;8.134;2023-04-15T01:04:39;8.30;99.90
3300;DHT22;1662;49.310;8.134;2023-04-15T01:07:05;8.30;99.90
3300;DHT22;1662;49.310;8.134;2023-04-15T01:09:31;8.30;99.90
3300;DHT22;1662;49.310;8.134;2023-04-15T01:11:57;8.30;99.90
3300;DHT22;1662;49.310;8.134;2023-04-15T01:14:24;8.30;99.90
3300;DHT22;1662;49.310;8.134;2023-04-15T01:16:51;8.20;99.90
3300;DHT22;1662;49.310;8.134;2023-04-15T01:19:17;8.40;99.90
3300;DHT22;1662;49.310;8.134;2023-04-15T01:21:44;8.20;99.90
3300;DHT22;1662;49.310;8.134;2023-04-15T01:24:10;8.20;99.90
3300;DHT22;1662;49.310;8.134;2023-04-15T01:26:37;8.20;99.90
3300;DHT22;1662;49.310;8.134;2023-04-15T01:29:03;8.10;99.90
3300;DHT22;1662;49.310;8.134;2023-04-15T01:31:29;8.10;99.90
3300;DHT22;1662;49.310;8.134;2023-04-15T01:33:54;8.20;99.90
3300;DHT22;1662;49.310;8.134;2023-04-15T01:36:20;8.10;99.90
3300;DHT22;1662;49.310;8.134;2023-04-15T01:38:46;8.40;99.90
3300;DHT22;1662;49.310;8.134;2023-04-15T01:41:13;8.20;99.90
3300;DHT22;1662;49.310;8.134;2023-04-15T01:43:38;8.20;99.90
3300;DHT22;1662;49.310;8.134;2023-04-15T01:46:04;8.20;99.90
3300;DHT22;1662;49.310;8.134;2023-04-15T01:48:30;8.20;99.90
3300;DHT22;1662;49.310;8.134;2023-04-15T01:50:57;8.10;99.90
3300;DHT22;1662;49.310;8.134;2023-04-15T01:53:26;8.00;99.90
3300;DHT22;1662;49.310;8.134;2023-04-15T01:55:51;8.00;99.90
3300;DHT22;1662;49.310;8.134;2023-04-15T01:58:17;8.00;99.90
3300;DHT22;1662;49.310;8.134;2023-04-15T02:00:43;8.00;99.90
3300;DHT22;1662;49.310;8.134;2023-04-15T02:03:12;7.90;99.90
3300;DHT22;1662;49.310;8.134;2023-04-15T02:05:37;7.90;99.90
3300;DHT22;1662;49.310;8.134;2023-04-15T02:08:03;8.00;99.90
3300;DHT22;1662;49.310;8.134;2023-04-15T02:10:29;8.00;99.90
3300;DHT22;1662;49.310;8.134;2023-04-15T02:12:54;8.00;99.90
3300;DHT22;1662;49.310;8.134;2023-04-15T02:15:20;8.00;99.90
3300;DHT22;1662;49.310;8.134;2023-04-15T02:17:47;8.00;99.90
3300;DHT22;1662;49.310;8.134;2023-04-15T02:20:16;8.00;99.90
3300;DHT22;1662;49.310;8.134;2023-04-15T02:22:42;8.00;99.90
3300;DHT22;1662;49.310;8.134;2023-04-15T02:25:08;8.00;99.90
3300;DHT22;1662;49.310;8.134;2023-04-15T02:27:35;8.00;99.90
3300;DHT22;1662;49.310;8.134;2023-04-15T02:30:01;7.80;99.90
3300;DHT22;1662;49.310;8.134;2023-04-15T02:32:26;7.70;99.90
3300;DHT22;1662;49.310;8.134;2023-04-15T02:34:53;7.60;99.90
3300;DHT22;1662;49.310;8.134;2023-04-15T02:37:21;7.60;99.90
3300;DHT22;1662;49.310;8.134;2023-04-15T02:39:47;7.60;99.90
3300;DHT22;1662;49.310;8.134;2023-04-15T02:42:13;7.70;99.90
3300;DHT22;1662;49.310;8.134;2023-04-15T02:44:38;7.60;99.90
3300;DHT22;1662;49.310;8.134;2023-04-15T02:47:04;7.80;99.90
3300;DHT22;1662;49.310;8.134;2023-04-15T02:49:31;7.70;99.90
3300;DHT22;1662;49.310;8.134;2023-04-15T02:51:57;7.60;99.90
3300;DHT22;1662;49.310;8.134;2023-04-15T02:54:25;7.60;99.90
3300;DHT22;1662;49.310;8.134;2023-04-15T02:56:53;7.60;99.90
3300;DHT22;1662;49.310;8.134;2023-04-15T02:59:20;7.60;99.90
3300;DHT22;1662;49.310;8.134;2023-04-15T03:01:46;7.60;99.90
3300;DHT22;1662;49.310;8.134;2023-04-15T03:04:11;7.60;99.90
3300;DHT22;1662;49.310;8.134;2023-04-15T03:06:38;7.70;99.90
3300;DHT22;1662;49.310;8.134;2023-04-15T03:09:03;7.70;99.90
3300;DHT22;1662;49.310;8.134;2023-04-15T03:11:30;7.80;99.90
3300;DHT22;1662;49.310;8.134;2023-04-15T03:13:56;7.60;99.90
3300;DHT22;1662;49.310;8.134;2023-04-15T03:16:21;7.60;99.90
3300;DHT22;1662;49.310;8.134;2023-04-15T03:18:47;7.50;99.90
3300;DHT22;1662;49.310;8.134;2023-04-15T03:21:15;7.50;99.90
3300;DHT22;1662;49.310;8.134;2023-04-15T03:23:40;7.50;99.90
3300;DHT22;1662;49.310;8.134;2023-04-15T03:26:06;7.60;99.90
3300;DHT22;1662;49.310;8.134;2023-04-15T03:28:32;7.60;99.90
3300;DHT22;1662;49.310;8.134;2023-04-15T03:30:58;7.50;99.90
3300;DHT22;1662;49.310;8.134;2023-04-15T03:33:24;7.50;99.90
3300;DHT22;1662;49.310;8.134;2023-04-15T03:35:50;7.50;99.90
3300;DHT22;1662;49.310;8.134;2023-04-15T03:38:16;7.40;99.90
3300;DHT22;1662;49.310;8.134;2023-04-15T03:40:42;7.40;99.90
3300;DHT22;1662;49.310;8.134;2023-04-15T03:43:10;7.40;99.90
3300;DHT22;1662;49.310;8.134;2023-04-15T03:45:36;7.40;99.90
3300;DHT22;1662;49.310;8.134;2023-04-15T03:48:04;7.40;99.90
3300;DHT22;1662;49.310;8.134;2023-04-15T03:50:30;7.30;99.90
3300;DHT22;1662;49.310;8.134;2023-04-15T03:52:56;7.20;99.90
3300;DHT22;1662;49.310;8.134;2023-04-15T03:55:21;7.20;99.90
3300;DHT22;1662;49.310;8.134;2023-04-15T03:57:47;7.20;99.90
3300;DHT22;1662;49.310;8.134;2023-04-15T04:00:13;7.20;99.90
3300;DHT22;1662;49.310;8.134;2023-04-15T04:02:38;7.10;99.90
3300;DHT22;1662;49.310;8.134;2023-04-15T04:05:04;7.10;99.90
3300;DHT22;1662;49.310;8.134;2023-04-15T04:07:32;7.10;99.90
3300;DHT22;1662;49.310;8.134;2023-04-15T04:09:57;7.10;99.90
3300;DHT22;1662;49.310;8.134;2023-04-15T04:12:23;7.00;99.90
3300;DHT22;1662;49.310;8.134;2023-04-15T04:14:49;7.10;99.90
3300;DHT22;1662;49.310;8.134;2023-04-15T04:17:14;7.00;99.90
3300;DHT22;1662;49.310;8.134;2023-04-15T04:19:40;7.00;99.90
3300;DHT22;1662;49.310;8.134;2023-04-15T04:22:06;7.00;99.90
3300;DHT22;1662;49.310;8.134;2023-04-15T04:24:31;7.00;99.90
3300;DHT22;1662;49.310;8.134;2023-04-15T04:26:57;7.00;99.90
3300;DHT22;1662;49.310;8.134;2023-04-15T04:29:23;7.00;99.90
3300;DHT22;1662;49.310;8.134;2023-04-15T04:31:48;7.00;99.90
3300;DHT22;1662;49.310;8.134;2023-04-15T04:34:15;7.00;99.90
3300;DHT22;1662;49.310;8.134;2023-04-15T04:36:40;6.90;99.90
3300;DHT22;1662;49.310;8.134;2023-04-15T04:39:06;6.90;99.90
3300;DHT22;1662;49.310;8.134;2023-04-15T04:41:34;6.90;99.90
3300;DHT22;1662;49.310;8.134;2023-04-15T04:44:00;6.90;99.90
3300;DHT22;1662;49.310;8.134;2023-04-15T04:46:26;6.80;99.90
3300;DHT22;1662;49.310;8.134;2023-04-15T04:48:52;6.80;99.90
3300;DHT22;1662;49.310;8.134;2023-04-15T04:51:18;6.90;99.90
3300;DHT22;1662;49.310;8.134;2023-04-15T04:53:44;6.80;99.90
3300;DHT22;1662;49.310;8.134;2023-04-15T04:56:09;6.80;99.90
3300;DHT22;1662;49.310;8.134;2023-04-15T04:58:35;6.80;99.90
3300;DHT22;1662;49.310;8.134;2023-04-15T05:01:01;6.80;99.90
3300;DHT22;1662;49.310;8.134;2023-04-15T05:03:27;6.80;99.90
3300;DHT22;1662;49.310;8.134;2023-04-15T05:05:53;6.90;99.90
3300;DHT22;1662;49.310;8.134;2023-04-15T05:08:19;6.90;99.90
3300;DHT22;1662;49.310;8.134;2023-04-15T05:10:45;6.90;99.90
3300;DHT22;1662;49.310;8.134;2023-04-15T05:13:10;6.90;99.90
3300;DHT22;1662;49.310;8.134;2023-04-15T05:15:38;7.00;99.90
3300;DHT22;1662;49.310;8.134;2023-04-15T05:18:05;7.00;99.90
3300;DHT22;1662;49.310;8.134;2023-04-15T05:20:31;7.00;99.90
3300;DHT22;1662;49.310;8.134;2023-04-15T05:22:57;7.00;99.90
3300;DHT22;1662;49.310;8.134;2023-04-15T05:25:22;7.00;99.90
3300;DHT22;1662;49.310;8.134;2023-04-15T05:27:48;7.10;99.90
3300;DHT22;1662;49.310;8.134;2023-04-15T05:30:16;7.10;99.90
3300;DHT22;1662;49.310;8.134;2023-04-15T05:32:41;7.20;99.90
3300;DHT22;1662;49.310;8.134;2023-04-15T05:35:08;7.30;99.90
3300;DHT22;1662;49.310;8.134;2023-04-15T05:37:33;7.40;99.90
3300;DHT22;1662;49.310;8.134;2023-04-15T05:39:59;7.40;99.90
3300;DHT22;1662;49.310;8.134;2023-04-15T05:42:25;7.40;99.90
3300;DHT22;1662;49.310;8.134;2023-04-15T05:44:51;7.40;99.90
3300;DHT22;1662;49.310;8.134;2023-04-15T05:47:16;7.40;99.90
3300;DHT22;1662;49.310;8.134;2023-04-15T05:49:42;7.40;99.90
3300;DHT22;1662;49.310;8.134;2023-04-15T05:52:07;7.50;99.90
3300;DHT22;1662;49.310;8.134;2023-04-15T05:54:33;7.50;99.90
3300;DHT22;1662;49.310;8.134;2023-04-15T05:56:59;7.50;99.90
3300;DHT22;1662;49.310;8.134;2023-04-15T05:59:25;7.60;99.90
3300;DHT22;1662;49.310;8.134;2023-04-15T06:01:51;7.60;99.90
3300;DHT22;1662;49.310;8.134;2023-04-15T06:04:17;7.60;99.90
3300;DHT22;1662;49.310;8.134;2023-04-15T06:06:42;7.70;99.90
3300;DHT22;1662;49.310;8.134;2023-04-15T06:09:09;7.70;99.90
3300;DHT22;1662;49.310;8.134;2023-04-15T06:11:34;7.70;99.90
3300;DHT22;1662;49.310;8.134;2023-04-15T06:14:00;7.70;99.90
3300;DHT22;1662;49.310;8.134;2023-04-15T06:16:28;7.70;99.90
3300;DHT22;1662;49.310;8.134;2023-04-15T06:18:54;7.70;99.90
3300;DHT22;1662;49.310;8.134;2023-04-15T06:21:19;7.70;99.90
3300;DHT22;1662;49.310;8.134;2023-04-15T06:23:45;7.70;99.90
3300;DHT22;1662;49.310;8.134;2023-04-15T06:26:11;7.70;99.90
3300;DHT22;1662;49.310;8.134;2023-04-15T06:28:39;7.80;99.90
3300;DHT22;1662;49.310;8.134;2023-04-15T06:31:07;7.80;99.90
3300;DHT22;1662;49.310;8.134;2023-04-15T06:33:32;7.80;99.90
3300;DHT22;1662;49.310;8.134;2023-04-15T06:35:58;7.80;99.90
3300;DHT22;1662;49.310;8.134;2023-04-15T06:38:23;7.80;99.90
3300;DHT22;1662;49.310;8.134;2023-04-15T06:40:49;7.90;99.90
3300;DHT22;1662;49.310;8.134;2023-04-15T06:43:15;7.90;99.90
3300;DHT22;1662;49.310;8.134;2023-04-15T06:45:41;8.00;99.90
3300;DHT22;1662;49.310;8.134;2023-04-15T06:48:06;8.00;99.90
3300;DHT22;1662;49.310;8.134;2023-04-15T06:50:32;8.10;99.90
3300;DHT22;1662;49.310;8.134;2023-04-15T06:52:58;8.10;99.90
3300;DHT22;1662;49.310;8.134;2023-04-15T06:55:23;8.20;99.90
3300;DHT22;1662;49.310;8.134;2023-04-15T06:57:49;8.20;99.90
3300;DHT22;1662;49.310;8.134;2023-04-15T07:00:15;8.30;99.90
3300;DHT22;1662;49.310;8.134;2023-04-15T07:02:41;8.40;99.90
3300;DHT22;1662;49.310;8.134;2023-04-15T07:05:06;8.40;99.90
3300;DHT22;1662;49.310;8.134;2023-04-15T07:07:32;8.50;99.90
3300;DHT22;1662;49.310;8.134;2023-04-15T07:09:58;8.60;99.90
3300;DHT22;1662;49.310;8.134;2023-04-15T07:12:24;8.70;99.90
3300;DHT22;1662;49.310;8.134;2023-04-15T07:14:50;8.70;99.90
3300;DHT22;1662;49.310;8.134;2023-04-15T07:17:16;8.80;99.90
3300;DHT22;1662;49.310;8.134;2023-04-15T07:19:42;8.80;99.90
3300;DHT22;1662;49.310;8.134;2023-04-15T07:22:07;8.90;99.90
3300;DHT22;1662;49.310;8.134;2023-04-15T07:24:33;8.90;99.90
3300;DHT22;1662;49.310;8.134;2023-04-15T07:26:59;8.90;99.90
3300;DHT22;1662;49.310;8.134;2023-04-15T07:29:24;8.90;99.90
3300;DHT22;1662;49.310;8.134;2023-04-15T07:31:51;8.90;99.90
3300;DHT22;1662;49.310;8.134;2023-04-15T07:34:18;8.90;99.90
3300;DHT22;1662;49.310;8.134;2023-04-15T07:36:43;9.00;99.90
3300;DHT22;1662;49.310;8.134;2023-04-15T07:39:10;9.10;99.90
3300;DHT22;1662;49.310;8.134;2023-04-15T07:41:36;9.10;99.90
3300;DHT22;1662;49.310;8.134;2023-04-15T07:44:02;9.10;99.90
3300;DHT22;1662;49.310;8.134;2023-04-15T07:46:28;9.10;99.90
3300;DHT22;1662;49.310;8.134;2023-04-15T07:48:54;9.20;99.90
3300;DHT22;1662;49.310;8.134;2023-04-15T07:51:20;9.20;99.90
3300;DHT22;1662;49.310;8.134;2023-04-15T07:53:46;9.20;99.90
3300;DHT22;1662;49.310;8.134;2023-04-15T07:56:12;9.20;99.90
3300;DHT22;1662;49.310;8.134;2023-04-15T07:58:38;9.30;99.90
3300;DHT22;1662;49.310;8.134;2023-04-15T08:01:04;9.30;99.90
3300;DHT22;1662;49.310;8.134;2023-04-15T08:03:30;9.40;99.90
3300;DHT22;1662;49.310;8.134;2023-04-15T08:05:56;9.40;99.90
3300;DHT22;1662;49.310;8.134;2023-04-15T08:08:22;9.50;99.90
3300;DHT22;1662;49.310;8.134;2023-04-15T08:10:48;9.50;99.90
3300;DHT22;1662;49.310;8.134;2023-04-15T08:13:14;9.60;99.90
3300;DHT22;1662;49.310;8.134;2023-04-15T08:15:40;9.70;99.90
3300;DHT22;1662;49.310;8.134;2023-04-15T08:18:05;9.80;99.90
3300;DHT22;1662;49.310;8.134;2023-04-15T08:20:31;9.90;99.90
3300;DHT22;1662;49.310;8.134;2023-04-15T08:22:57;10.00;99.90
3300;DHT22;1662;49.310;8.134;2023-04-15T08:25:23;10.10;99.90
3300;DHT22;1662;49.310;8.134;2023-04-15T08:27:48;10.30;99.90
3300;DHT22;1662;49.310;8.134;2023-04-15T08:30:14;10.30;99.90
3300;DHT22;1662;49.310;8.134;2023-04-15T08:32:41;10.50;99.90
3300;DHT22;1662;49.310;8.134;2023-04-15T08:35:07;10.70;99.90
3300;DHT22;1662;49.310;8.134;2023-04-15T08:37:33;11.00;99.90
3300;DHT22;1662;49.310;8.134;2023-04-15T08:39:59;11.20;99.90
3300;DHT22;1662;49.310;8.134;2023-04-15T08:42:31;11.30;99.90
3300;DHT22;1662;49.310;8.134;2023-04-15T08:45:03;11.50;99.90
3300;DHT22;1662;49.310;8.134;2023-04-15T08:47:30;11.50;99.90
3300;DHT22;1662;49.310;8.134;2023-04-15T08:50:00;11.70;99.90
3300;DHT22;1662;49.310;8.134;2023-04-15T08:52:30;11.80;99.90
3300;DHT22;1662;49.310;8.134;2023-04-15T08:54:56;12.00;99.90
3300;DHT22;1662;49.310;8.134;2023-04-15T08:57:26;12.20;99.90
3300;DHT22;1662;49.310;8.134;2023-04-15T08:59:55;12.20;99.90
3300;DHT22;1662;49.310;8.134;2023-04-15T09:02:21;12.30;99.90
3300;DHT22;1662;49.310;8.134;2023-04-15T09:04:47;12.40;99.90
3300;DHT22;1662;49.310;8.134;2023-04-15T09:07:13;12.40;99.90
3300;DHT22;1662;49.310;8.134;2023-04-15T09:09:39;12.50;99.90
3300;DHT22;1662;49.310;8.134;2023-04-15T09:12:07;12.60;99.90
3300;DHT22;1662;49.310;8.134;2023-04-15T09:14:32;12.60;99.90
3300;DHT22;1662;49.310;8.134;2023-04-15T09:17:09;12.70;99.90
3300;DHT22;1662;49.310;8.134;2023-04-15T09:19:36;12.60;99.90
3300;DHT22;1662;49.310;8.134;2023-04-15T09:22:02;12.70;99.90
3300;DHT22;1662;49.310;8.134;2023-04-15T09:24:38;12.70;99.90
3300;DHT22;1662;49.310;8.134;2023-04-15T09:27:04;12.70;99.90
3300;DHT22;1662;49.310;8.134;2023-04-15T09:29:30;12.80;99.90
3300;DHT22;1662;49.310;8.134;2023-04-15T09:32:19;12.90;99.90
3300;DHT22;1662;49.310;8.134;2023-04-15T09:34:45;13.00;99.90
3300;DHT22;1662;49.310;8.134;2023-04-15T09:37:14;13.10;99.90
3300;DHT22;1662;49.310;8.134;2023-04-15T09:42:11;13.30;99.90
3300;DHT22;1662;49.310;8.134;2023-04-15T09:44:37;13.30;99.90
3300;DHT22;1662;49.310;8.134;2023-04-15T09:47:03;13.30;99.90
3300;DHT22;1662;49.310;8.134;2023-04-15T09:49:28;13.30;99.90
3300;DHT22;1662;49.310;8.134;2023-04-15T09:51:59;13.40;99.90
3300;DHT22;1662;49.310;8.134;2023-04-15T09:54:35;13.40;99.90
3300;DHT22;1662;49.310;8.134;2023-04-15T09:57:05;13.40;99.90
3300;DHT22;1662;49.310;8.134;2023-04-15T09:59:31;13.40;99.90
3300;DHT22;1662;49.310;8.134;2023-04-15T10:01:57;13.40;99.90
3300;DHT22;1662;49.310;8.134;2023-04-15T10:04:24;13.40;99.90
3300;DHT22;1662;49.310;8.134;2023-04-15T10:06:50;13.40;99.90
3300;DHT22;1662;49.310;8.134;2023-04-15T10:09:16;13.40;99.90
3300;DHT22;1662;49.310;8.134;2023-04-15T10:11:45;13.50;99.90
3300;DHT22;1662;49.310;8.134;2023-04-15T10:14:12;13.60;99.90
3300;DHT22;1662;49.310;8.134;2023-04-15T10:16:40;13.70;99.90
3300;DHT22;1662;49.310;8.134;2023-04-15T10:19:08;13.80;99.90
3300;DHT22;1662;49.310;8.134;2023-04-15T10:21:36;13.90;99.90
3300;DHT22;1662;49.310;8.134;2023-04-15T10:24:02;13.90;99.90
3300;DHT22;1662;49.310;8.134;2023-04-15T10:26:28;14.10;99.90
3300;DHT22;1662;49.310;8.134;2023-04-15T10:28:54;14.30;99.90
3300;DHT22;1662;49.310;8.134;2023-04-15T10:31:20;14.50;99.90
3300;DHT22;1662;49.310;8.134;2023-04-15T10:33:47;14.70;99.90
3300;DHT22;1662;49.310;8.134;2023-04-15T10:36:14;14.90;99.90
3300;DHT22;1662;49.310;8.134;2023-04-15T10:38:44;15.10;99.90
3300;DHT22;1662;49.310;8.134;2023-04-15T10:41:21;15.10;99.90
3300;DHT22;1662;49.310;8.134;2023-04-15T10:43:54;15.20;99.90
3300;DHT22;1662;49.310;8.134;2023-04-15T10:48:52;15.40;99.90
3300;DHT22;1662;49.310;8.134;2023-04-15T10:51:29;15.50;99.90
3300;DHT22;1662;49.310;8.134;2023-04-15T10:54:01;15.50;99.90
3300;DHT22;1662;49.310;8.134;2023-04-15T10:56:29;15.50;99.90
3300;DHT22;1662;49.310;8.134;2023-04-15T10:58:58;15.50;99.90
3300;DHT22;1662;49.310;8.134;2023-04-15T11:01:54;15.40;99.90
3300;DHT22;1662;49.310;8.134;2023-04-15T11:04:57;15.40;99.90
3300;DHT22;1662;49.310;8.134;2023-04-15T11:10:49;15.60;99.90
3300;DHT22;1662;49.310;8.134;2023-04-15T11:12:51;15.70;99.90
3300;DHT22;1662;49.310;8.134;2023-04-15T11:15:41;15.70;99.90
3300;DHT22;1662;49.310;8.134;2023-04-15T11:20:40;15.90;99.90
3300;DHT22;1662;49.310;8.134;2023-04-15T11:23:07;15.80;99.90
3300;DHT22;1662;49.310;8.134;2023-04-15T11:25:34;15.80;99.90
3300;DHT22;1662;49.310;8.134;2023-04-15T11:28:00;15.80;99.90
3300;DHT22;1662;49.310;8.134;2023-04-15T11:30:32;15.40;99.90
3300;DHT22;1662;49.310;8.134;2023-04-15T11:33:00;15.80;99.90
3300;DHT22;1662;49.310;8.134;2023-04-15T11:35:26;15.90;99.90
3300;DHT22;1662;49.310;8.134;2023-04-15T11:37:55;16.10;99.90
3300;DHT22;1662;49.310;8.134;2023-04-15T11:40:25;16.40;99.90
3300;DHT22;1662;49.310;8.134;2023-04-15T11:43:08;16.50;99.90
3300;DHT22;1662;49.310;8.134;2023-04-15T11:45:35;16.60;99.90
3300;DHT22;1662;49.310;8.134;2023-04-15T11:50:37;16.80;99.90
3300;DHT22;1662;49.310;8.134;2023-04-15T11:53:06;16.90;99.90
3300;DHT22;1662;49.310;8.134;2023-04-15T11:55:43;17.00;99.90
3300;DHT22;1662;49.310;8.134;2023-04-15T11:58:22;17.00;99.90
3300;DHT22;1662;49.310;8.134;2023-04-15T12:00:53;16.90;99.90
3300;DHT22;1662;49.310;8.134;2023-04-15T12:03:22;17.00;99.90
3300;DHT22;1662;49.310;8.134;2023-04-15T12:09:07;17.10;99.90
3300;DHT22;1662;49.310;8.134;2023-04-15T12:11:40;16.90;99.90
3300;DHT22;1662;49.310;8.134;2023-04-15T12:14:10;16.80;99.90
3300;DHT22;1662;49.310;8.134;2023-04-15T12:16:43;16.80;99.90
3300;DHT22;1662;49.310;8.134;2023-04-15T12:21:47;16.80;99.90
3300;DHT22;1662;49.310;8.134;2023-04-15T12:24:13;17.00;99.90
3300;DHT22;1662;49.310;8.134;2023-04-15T12:26:52;17.20;99.90
3300;DHT22;1662;49.310;8.134;2023-04-15T12:29:19;17.50;99.90
3300;DHT22;1662;49.310;8.134;2023-04-15T12:31:50;17.60;99.90
3300;DHT22;1662;49.310;8.134;2023-04-15T12:34:17;17.80;99.90
3300;DHT22;1662;49.310;8.134;2023-04-15T12:36:43;17.90;99.90
3300;DHT22;1662;49.310;8.134;2023-04-15T12:39:08;18.00;99.90
3300;DHT22;1662;49.310;8.134;2023-04-15T12:41:34;17.90;99.90
3300;DHT22;1662;49.310;8.134;2023-04-15T12:44:00;17.70;99.90
3300;DHT22;1662;49.310;8.134;2023-04-15T12:46:26;17.20;99.90
3300;DHT22;1662;49.310;8.134;2023-04-15T12:48:55;17.50;99.90
3300;DHT22;1662;49.310;8.134;2023-04-15T12:51:21;17.40;99.90
3300;DHT22;1662;49.310;8.134;2023-04-15T12:53:47;17.10;99.90
3300;DHT22;1662;49.310;8.134;2023-04-15T12:56:14;17.00;99.90
3300;DHT22;1662;49.310;8.134;2023-04-15T12:58:39;16.80;99.90
3300;DHT22;1662;49.310;8.134;2023-04-15T13:01:05;16.80;99.90
3300;DHT22;1662;49.310;8.134;2023-04-15T13:03:31;16.60;99.90
3300;DHT22;1662;49.310;8.134;2023-04-15T13:05:56;16.50;99.90
3300;DHT22;1662;49.310;8.134;2023-04-15T13:08:22;16.40;99.90
3300;DHT22;1662;49.310;8.134;2023-04-15T13:10:48;16.30;99.90
3300;DHT22;1662;49.310;8.134;2023-04-15T13:13:13;16.00;99.90
3300;DHT22;1662;49.310;8.134;2023-04-15T13:15:40;15.90;99.90
3300;DHT22;1662;49.310;8.134;2023-04-15T13:18:10;15.80;99.90
3300;DHT22;1662;49.310;8.134;2023-04-15T13:20:38;15.80;99.90
3300;DHT22;1662;49.310;8.134;2023-04-15T13:23:03;15.90;99.90
3300;DHT22;1662;49.310;8.134;2023-04-15T13:25:29;16.00;99.90
3300;DHT22;1662;49.310;8.134;2023-04-15T13:27:55;16.10;99.90
3300;DHT22;1662;49.310;8.134;2023-04-15T13:30:21;16.20;99.90
3300;DHT22;1662;49.310;8.134;2023-04-15T13:32:48;16.10;99.90
3300;DHT22;1662;49.310;8.134;2023-04-15T13:35:14;16.00;99.90
3300;DHT22;1662;49.310;8.134;2023-04-15T13:37:40;15.90;99.90
3300;DHT22;1662;49.310;8.134;2023-04-15T13:40:09;15.70;99.90
3300;DHT22;1662;49.310;8.134;2023-04-15T13:42:34;15.60;99.90
3300;DHT22;1662;49.310;8.134;2023-04-15T13:45:00;15.60;99.90
3300;DHT22;1662;49.310;8.134;2023-04-15T13:47:26;15.70;99.90
3300;DHT22;1662;49.310;8.134;2023-04-15T13:49:52;15.70;99.90
3300;DHT22;1662;49.310;8.134;2023-04-15T13:52:18;15.80;99.90
3300;DHT22;1662;49.310;8.134;2023-04-15T13:54:44;16.00;99.90
3300;DHT22;1662;49.310;8.134;2023-04-15T13:57:09;16.00;99.90
3300;DHT22;1662;49.310;8.134;2023-04-15T13:59:35;15.80;99.90
3300;DHT22;1662;49.310;8.134;2023-04-15T14:02:01;15.70;99.90
3300;DHT22;1662;49.310;8.134;2023-04-15T14:04:26;15.70;99.90
3300;DHT22;1662;49.310;8.134;2023-04-15T14:06:52;15.50;99.90
3300;DHT22;1662;49.310;8.134;2023-04-15T14:09:18;15.40;99.90
3300;DHT22;1662;49.310;8.134;2023-04-15T14:11:43;15.40;99.90
3300;DHT22;1662;49.310;8.134;2023-04-15T14:14:11;15.50;99.90
3300;DHT22;1662;49.310;8.134;2023-04-15T14:16:37;15.50;99.90
3300;DHT22;1662;49.310;8.134;2023-04-15T14:19:02;15.50;99.90
3300;DHT22;1662;49.310;8.134;2023-04-15T14:21:28;15.50;99.90
3300;DHT22;1662;49.310;8.134;2023-04-15T14:23:56;15.40;99.90
3300;DHT22;1662;49.310;8.134;2023-04-15T14:26:21;15.40;99.90
3300;DHT22;1662;49.310;8.134;2023-04-15T14:28:47;15.30;99.90
3300;DHT22;1662;49.310;8.134;2023-04-15T14:31:13;15.30;99.90
3300;DHT22;1662;49.310;8.134;2023-04-15T14:33:39;15.30;99.90
3300;DHT22;1662;49.310;8.134;2023-04-15T14:36:06;15.30;99.90
3300;DHT22;1662;49.310;8.134;2023-04-15T14:38:33;15.70;99.90
3300;DHT22;1662;49.310;8.134;2023-04-15T14:41:06;15.80;99.90
3300;DHT22;1662;49.310;8.134;2023-04-15T14:43:33;15.80;99.90
3300;DHT22;1662;49.310;8.134;2023-04-15T14:45:58;15.80;99.90
3300;DHT22;1662;49.310;8.134;2023-04-15T14:48:24;16.00;99.90
3300;DHT22;1662;49.310;8.134;2023-04-15T14:50:51;16.00;99.90
3300;DHT22;1662;49.310;8.134;2023-04-15T14:53:16;16.00;99.90
3300;DHT22;1662;49.310;8.134;2023-04-15T14:55:42;16.10;99.90
3300;DHT22;1662;49.310;8.134;2023-04-15T14:58:08;16.00;99.90
3300;DHT22;1662;49.310;8.134;2023-04-15T15:00:34;16.00;99.90
3300;DHT22;1662;49.310;8.134;2023-04-15T15:03:00;16.00;99.90
3300;DHT22;1662;49.310;8.134;2023-04-15T15:05:26;15.80;99.90
3300;DHT22;1662;49.310;8.134;2023-04-15T15:07:52;15.70;99.90
3300;DHT22;1662;49.310;8.134;2023-04-15T15:10:17;15.60;99.90
3300;DHT22;1662;49.310;8.134;2023-04-15T15:12:43;15.70;99.90
3300;DHT22;1662;49.310;8.134;2023-04-15T15:15:09;15.40;99.90
3300;DHT22;1662;49.310;8.134;2023-04-15T15:17:35;15.40;99.90
3300;DHT22;1662;49.310;8.134;2023-04-15T15:20:00;15.20;99.90
3300;DHT22;1662;49.310;8.134;2023-04-15T15:22:27;15.00;99.90
3300;DHT22;1662;49.310;8.134;2023-04-15T15:24:53;15.10;99.90
3300;DHT22;1662;49.310;8.134;2023-04-15T15:27:19;15.30;99.90
3300;DHT22;1662;49.310;8.134;2023-04-15T15:29:44;15.40;99.90
3300;DHT22;1662;49.310;8.134;2023-04-15T15:32:10;15.20;99.90
3300;DHT22;1662;49.310;8.134;2023-04-15T15:34:36;15.10;99.90
3300;DHT22;1662;49.310;8.134;2023-04-15T15:37:01;14.90;99.90
3300;DHT22;1662;49.310;8.134;2023-04-15T15:39:27;14.80;99.90
3300;DHT22;1662;49.310;8.134;2023-04-15T15:41:54;14.80;99.90
3300;DHT22;1662;49.310;8.134;2023-04-15T15:44:19;14.80;99.90
3300;DHT22;1662;49.310;8.134;2023-04-15T15:46:45;14.70;99.90
3300;DHT22;1662;49.310;8.134;2023-04-15T15:49:10;14.50;99.90
3300;DHT22;1662;49.310;8.134;2023-04-15T15:51:36;14.50;99.90
3300;DHT22;1662;49.310;8.134;2023-04-15T15:54:02;14.30;99.90
3300;DHT22;1662;49.310;8.134;2023-04-15T15:56:28;14.30;99.90
3300;DHT22;1662;49.310;8.134;2023-04-15T15:58:53;14.30;99.90
3300;DHT22;1662;49.310;8.134;2023-04-15T16:01:19;14.10;99.90
3300;DHT22;1662;49.310;8.134;2023-04-15T16:03:45;13.90;99.90
3300;DHT22;1662;49.310;8.134;2023-04-15T16:06:10;13.60;99.90
3300;DHT22;1662;49.310;8.134;2023-04-15T16:08:36;13.70;99.90
3300;DHT22;1662;49.310;8.134;2023-04-15T16:11:01;13.80;99.90
3300;DHT22;1662;49.310;8.134;2023-04-15T16:13:27;13.70;99.90
3300;DHT22;1662;49.310;8.134;2023-04-15T16:15:53;13.60;99.90
3300;DHT22;1662;49.310;8.134;2023-04-15T16:18:18;13.50;99.90
3300;DHT22;1662;49.310;8.134;2023-04-15T16:20:44;13.50;99.90
3300;DHT22;1662;49.310;8.134;2023-04-15T16:23:14;13.50;99.90
3300;DHT22;1662;49.310;8.134;2023-04-15T16:25:41;13.40;99.90